Terminal Aerodrome Forecast
Issued by NWS

Home | Current Version | Previous Version | Text Only | Print | Product List | Glossary On
Versions: 1 2 3 4 5 6 7 8 9 10 11 12 13 14
000
FTUS42 KTAE 021730
TAFDHN
TAF
KDHN 021730Z 0218/0318 18010KT P6SM VCTS BKN050CB OVC100
      TEMPO 0220/0224 5SM -TSRA BKN035CB
     FM030200 24006KT P6SM SCT050 BKN100
     FM030600 22005KT 5SM BR OVC007
     FM031400 25010KT P6SM VCTS BKN030CB=

USA.gov is the U.S. government's official web portal to all federal, state and local government web resources and services.